Time;durP1;ratioP1;P1;durP2;ratioP2;P2;SDS_P1;SDS_P2;PMS_P1;PMS_P2;Temp;Humidity;BMP_temperature;BMP_pressure;BME280_temperature;BME280_humidity;BME280_pressure;Samples;Min_cycle;Max_cycle;Signal;HPM_P1;HPM_P2
2020/12/04 00:00:44;;;;;;;7.18;3.38;;;2.10;96.70;;;;;;5030227;28;20132;-68
2020/12/04 00:03:10;;;;;;;5.07;2.58;;;2.10;96.80;;;;;;5032107;28;20124;-68
2020/12/04 00:05:36;;;;;;;4.68;1.98;;;2.10;96.90;;;;;;5032317;28;20049;-69
2020/12/04 00:08:03;;;;;;;7.07;2.70;;;2.20;97.00;;;;;;5030963;28;20085;-68
2020/12/04 00:10:29;;;;;;;5.20;2.33;;;2.20;97.00;;;;;;5031472;28;20132;-69
2020/12/04 00:12:55;;;;;;;8.27;3.30;;;2.20;97.00;;;;;;5029360;28;20124;-69
2020/12/04 00:15:22;;;;;;;7.13;3.50;;;2.20;97.20;;;;;;5031385;28;20133;-69
2020/12/04 00:17:48;;;;;;;6.38;3.55;;;2.20;97.30;;;;;;5031619;28;20128;-70
2020/12/04 00:20:14;;;;;;;8.73;3.88;;;2.30;97.20;;;;;;5031522;28;20067;-69
2020/12/04 00:22:41;;;;;;;4.30;2.22;;;2.30;97.20;;;;;;5030842;28;20060;-69
2020/12/04 00:25:08;;;;;;;6.57;3.15;;;2.30;97.10;;;;;;5026952;28;20045;-69
2020/12/04 00:27:34;;;;;;;7.40;3.58;;;2.40;97.00;;;;;;5030157;28;20469;-69
2020/12/04 00:30:00;;;;;;;6.47;3.15;;;2.30;96.90;;;;;;5030839;28;20077;-69
2020/12/04 00:32:26;;;;;;;7.10;3.53;;;2.40;97.10;;;;;;5029489;28;20060;-69
2020/12/04 00:34:53;;;;;;;6.22;3.78;;;2.40;97.00;;;;;;5029336;28;20069;-70
2020/12/04 00:37:19;;;;;;;5.07;3.17;;;2.50;96.90;;;;;;5030153;28;20067;-70
2020/12/04 00:39:45;;;;;;;5.22;2.65;;;2.50;97.00;;;;;;5029801;28;20049;-69
2020/12/04 00:42:12;;;;;;;5.32;2.78;;;2.40;96.80;;;;;;5029581;28;20049;-69
2020/12/04 00:44:38;;;;;;;7.35;3.08;;;2.50;96.90;;;;;;5030448;28;20144;-70
2020/12/04 00:47:05;;;;;;;5.70;3.05;;;2.50;96.80;;;;;;5030776;28;20053;-69
2020/12/04 00:49:31;;;;;;;6.15;3.03;;;2.50;97.00;;;;;;5031398;28;20103;-69
2020/12/04 00:51:57;;;;;;;6.03;3.30;;;2.50;96.60;;;;;;5030538;28;20053;-69
2020/12/04 00:54:24;;;;;;;5.60;2.83;;;2.60;96.80;;;;;;5030338;28;20053;-69
2020/12/04 00:56:51;;;;;;;9.10;3.92;;;2.60;96.50;;;;;;5030257;28;20065;-69
2020/12/04 00:59:17;;;;;;;5.15;2.65;;;2.60;96.40;;;;;;5029284;28;20120;-69
2020/12/04 01:01:43;;;;;;;6.57;3.53;;;2.70;96.20;;;;;;5031081;28;20488;-69
2020/12/04 01:04:10;;;;;;;6.63;2.85;;;2.70;95.80;;;;;;5030070;28;20463;-69
2020/12/04 01:06:36;;;;;;;4.25;2.60;;;2.80;95.80;;;;;;5030016;28;20144;-69
2020/12/04 01:09:05;;;;;;;6.78;3.33;;;2.80;95.30;;;;;;5028292;28;20053;-69
2020/12/04 01:11:32;;;;;;;5.32;2.70;;;2.80;95.30;;;;;;5031316;28;20049;-70
2020/12/04 01:14:00;;;;;;;5.32;2.55;;;2.90;95.20;;;;;;5028799;28;20141;-70
2020/12/04 01:16:26;;;;;;;5.00;2.72;;;2.90;94.70;;;;;;5020858;28;20100;-69
2020/12/04 01:18:52;;;;;;;5.32;2.88;;;3.00;94.00;;;;;;5029908;28;20156;-69
2020/12/04 01:21:19;;;;;;;8.85;4.25;;;3.00;94.40;;;;;;5028326;28;20140;-70
2020/12/04 01:23:45;;;;;;;7.00;2.67;;;3.00;94.50;;;;;;5028441;28;20120;-70
2020/12/04 01:26:12;;;;;;;7.68;4.10;;;3.00;94.40;;;;;;5027065;28;20092;-69
2020/12/04 01:28:39;;;;;;;8.15;2.55;;;3.00;94.50;;;;;;5026589;28;20398;-70
2020/12/04 01:31:09;;;;;;;7.05;3.53;;;3.00;94.20;;;;;;5029773;28;20041;-70
2020/12/04 01:33:37;;;;;;;9.57;4.07;;;3.00;94.50;;;;;;5029000;28;20073;-70
2020/12/04 01:36:04;;;;;;;7.35;3.70;;;3.00;94.20;;;;;;5029325;28;20056;-70
2020/12/04 01:38:30;;;;;;;7.22;4.25;;;3.10;94.10;;;;;;5027286;28;20045;-69
2020/12/04 01:41:02;;;;;;;6.22;3.60;;;3.10;93.90;;;;;;5026778;28;20586;-69
2020/12/04 01:43:29;;;;;;;6.35;3.53;;;3.10;94.10;;;;;;5028371;28;20084;-69
2020/12/04 01:45:56;;;;;;;4.50;2.55;;;3.10;94.00;;;;;;5028236;28;20132;-70
2020/12/04 01:48:23;;;;;;;8.05;3.35;;;3.10;93.70;;;;;;5026353;28;20059;-69
2020/12/04 01:50:51;;;;;;;6.55;3.67;;;3.10;94.10;;;;;;5029622;28;20048;-70
2020/12/04 01:53:19;;;;;;;9.43;5.18;;;3.10;94.40;;;;;;5028624;28;20160;-70
2020/12/04 01:55:46;;;;;;;10.55;5.25;;;3.10;94.30;;;;;;5028693;28;20503;-70
2020/12/04 01:58:13;;;;;;;6.45;3.53;;;3.10;94.40;;;;;;5028497;28;20129;-70
2020/12/04 02:00:39;;;;;;;8.02;4.38;;;3.10;94.30;;;;;;5027844;28;20073;-69
2020/12/04 02:03:10;;;;;;;6.95;3.35;;;3.10;94.70;;;;;;5028875;28;20425;-69
2020/12/04 02:06:00;;;;;;;6.78;3.83;;;3.00;94.80;;;;;;5029488;28;20047;-69
2020/12/04 02:08:38;;;;;;;8.82;5.03;;;3.10;94.60;;;;;;5025783;28;20128;-70
2020/12/04 02:11:20;;;;;;;8.23;4.57;;;3.00;94.20;;;;;;5027658;28;20251;-69
2020/12/04 02:13:49;;;;;;;8.45;3.95;;;3.10;94.30;;;;;;5028354;28;20498;-69
2020/12/04 02:16:17;;;;;;;8.65;4.35;;;3.10;94.60;;;;;;5030000;28;20153;-69
2020/12/04 02:18:44;;;;;;;6.80;3.55;;;3.10;94.60;;;;;;5026149;28;20041;-70
2020/12/04 02:21:11;;;;;;;7.95;4.18;;;3.10;94.70;;;;;;5026931;28;20139;-69
2020/12/04 02:23:43;;;;;;;7.75;4.25;;;3.10;94.90;;;;;;5029559;28;20065;-69
2020/12/04 02:26:12;;;;;;;6.85;3.60;;;3.10;94.90;;;;;;5027227;28;20181;-70
2020/12/04 02:28:39;;;;;;;8.52;4.25;;;3.10;95.40;;;;;;5029274;28;20049;-69
2020/12/04 02:31:06;;;;;;;7.60;3.65;;;3.00;95.30;;;;;;5028715;28;20412;-69
2020/12/04 02:33:34;;;;;;;9.05;4.88;;;3.10;95.10;;;;;;5028390;28;20100;-69
2020/12/04 02:36:01;;;;;;;7.20;3.95;;;3.00;95.30;;;;;;5028886;28;20077;-69
2020/12/04 02:38:27;;;;;;;9.38;5.53;;;3.10;95.30;;;;;;5025601;28;20137;-69
2020/12/04 02:40:54;;;;;;;8.80;3.95;;;3.10;95.40;;;;;;5028583;28;20136;-69
2020/12/04 02:43:22;;;;;;;10.18;4.97;;;3.00;95.50;;;;;;5028188;28;20141;-70
2020/12/04 02:45:48;;;;;;;9.07;4.78;;;3.00;95.60;;;;;;5026421;28;20045;-70
2020/12/04 02:48:15;;;;;;;18.23;4.82;;;3.00;95.60;;;;;;5028309;28;20568;-71
2020/12/04 02:50:42;;;;;;;10.75;6.03;;;3.00;95.30;;;;;;5028225;28;20060;-69
2020/12/04 02:53:09;;;;;;;9.30;5.30;;;3.10;95.60;;;;;;5029051;28;20169;-70
2020/12/04 02:55:36;;;;;;;8.82;4.35;;;3.00;96.00;;;;;;5029041;28;20077;-70
2020/12/04 02:58:03;;;;;;;8.45;5.25;;;3.00;95.60;;;;;;5028340;28;20061;-70
2020/12/04 03:00:29;;;;;;;8.20;5.18;;;3.00;96.00;;;;;;5026933;28;20120;-69
2020/12/04 03:02:55;;;;;;;7.97;5.13;;;3.00;96.00;;;;;;5027460;28;20045;-70
2020/12/04 03:05:22;;;;;;;9.63;4.82;;;3.00;96.10;;;;;;5028461;28;20151;-70
2020/12/04 03:07:48;;;;;;;7.72;4.88;;;3.10;96.00;;;;;;5028922;28;20046;-70
2020/12/04 03:10:15;;;;;;;9.63;5.18;;;3.10;96.00;;;;;;5028293;28;20049;-70
2020/12/04 03:12:42;;;;;;;9.07;4.68;;;3.10;96.10;;;;;;5028119;28;20184;-69
2020/12/04 03:15:09;;;;;;;7.75;4.70;;;3.00;96.20;;;;;;5027915;28;20121;-70
2020/12/04 03:17:35;;;;;;;8.88;5.47;;;3.00;96.40;;;;;;5028212;28;20183;-70
2020/12/04 03:20:04;;;;;;;9.30;4.75;;;3.00;96.60;;;;;;5028055;28;20077;-69
2020/12/04 03:22:30;;;;;;;12.43;5.43;;;3.10;96.50;;;;;;5028495;28;20189;-70
2020/12/04 03:24:58;;;;;;;8.35;4.10;;;3.00;96.60;;;;;;5025894;28;20073;-70
2020/12/04 03:27:25;;;;;;;6.72;3.70;;;3.10;96.50;;;;;;5027593;28;20143;-69
2020/12/04 03:29:51;;;;;;;7.57;4.30;;;3.10;96.40;;;;;;5028724;28;20577;-70
2020/12/04 03:32:17;;;;;;;7.50;4.70;;;3.10;96.30;;;;;;5027386;28;20413;-69
2020/12/04 03:34:44;;;;;;;7.00;4.70;;;3.10;96.50;;;;;;5027789;28;20257;-70
2020/12/04 03:37:11;;;;;;;9.90;5.22;;;3.20;96.50;;;;;;5028553;28;20518;-70
2020/12/04 03:39:38;;;;;;;6.30;3.75;;;3.20;96.20;;;;;;5026679;28;20046;-70
2020/12/04 03:42:04;;;;;;;7.00;4.22;;;3.30;96.30;;;;;;5009932;28;20136;-70
2020/12/04 03:44:30;;;;;;;7.93;4.70;;;3.30;96.30;;;;;;5026628;28;20079;-70
2020/12/04 03:46:58;;;;;;;7.60;4.45;;;3.30;96.00;;;;;;5028034;28;20129;-69
2020/12/04 03:49:24;;;;;;;6.53;3.88;;;3.40;95.80;;;;;;5026764;28;20179;-69
2020/12/04 03:51:50;;;;;;;7.43;3.95;;;3.50;95.60;;;;;;5025797;28;20088;-69
2020/12/04 03:54:17;;;;;;;6.20;3.45;;;3.50;95.70;;;;;;5029375;28;20050;-70
2020/12/04 03:56:43;;;;;;;7.28;3.42;;;3.60;95.20;;;;;;5027866;28;20103;-69
2020/12/04 03:59:09;;;;;;;6.25;3.42;;;3.60;95.20;;;;;;5025503;28;20080;-69
2020/12/04 04:01:36;;;;;;;6.85;4.15;;;3.70;95.00;;;;;;5025347;28;20045;-68
2020/12/04 04:04:03;;;;;;;5.97;3.55;;;3.70;94.70;;;;;;5025892;28;20145;-68
2020/12/04 04:06:29;;;;;;;8.57;3.67;;;3.70;94.70;;;;;;5027507;28;20081;-69
2020/12/04 04:08:55;;;;;;;7.75;3.58;;;3.80;94.20;;;;;;5026636;28;20172;-70
2020/12/04 04:11:22;;;;;;;5.35;3.13;;;3.70;94.30;;;;;;5026091;28;20128;-69
2020/12/04 04:13:48;;;;;;;6.28;3.53;;;3.80;94.20;;;;;;5027485;28;20124;-69
2020/12/04 04:16:14;;;;;;;4.38;2.30;;;3.80;94.20;;;;;;5026324;28;20097;-69
2020/12/04 04:18:41;;;;;;;7.03;4.15;;;3.80;94.00;;;;;;5027011;28;20147;-69
2020/12/04 04:21:11;;;;;;;7.03;3.47;;;3.80;94.20;;;;;;5025029;28;20129;-70
2020/12/04 04:23:38;;;;;;;6.32;3.47;;;3.80;94.50;;;;;;5027069;28;20371;-69
2020/12/04 04:26:05;;;;;;;5.75;3.55;;;3.90;93.90;;;;;;5027005;28;20514;-69
2020/12/04 04:28:31;;;;;;;5.85;3.55;;;3.80;94.20;;;;;;5026737;28;20132;-69
2020/12/04 04:30:58;;;;;;;7.03;3.70;;;3.90;94.40;;;;;;5025352;28;20105;-69
2020/12/04 04:33:25;;;;;;;6.80;3.78;;;3.90;94.00;;;;;;5027656;28;20136;-70
2020/12/04 04:35:53;;;;;;;7.75;3.75;;;4.00;93.80;;;;;;5029564;28;20043;-69
2020/12/04 04:38:19;;;;;;;8.30;2.75;;;4.00;94.10;;;;;;5032036;28;20124;-69
2020/12/04 04:40:46;;;;;;;6.80;3.28;;;4.00;93.70;;;;;;5030036;28;20072;-69
2020/12/04 04:43:14;;;;;;;6.57;3.20;;;4.00;94.00;;;;;;5029683;28;20041;-70
2020/12/04 04:45:41;;;;;;;6.22;2.72;;;4.00;94.10;;;;;;5029305;28;20041;-69
2020/12/04 04:48:23;;;;;;;6.13;3.53;;;4.00;94.00;;;;;;5031481;28;20521;-70
2020/12/04 04:50:53;;;;;;;6.13;3.10;;;4.00;94.00;;;;;;5030486;28;20089;-70
2020/12/04 04:53:21;;;;;;;6.10;3.08;;;3.90;94.40;;;;;;5031465;28;20582;-69
2020/12/04 04:55:48;;;;;;;7.10;4.07;;;3.90;94.60;;;;;;5031024;28;20099;-69
2020/12/04 04:58:14;;;;;;;7.63;3.63;;;3.90;94.80;;;;;;5029463;28;20554;-68
2020/12/04 05:00:41;;;;;;;8.10;4.10;;;3.80;95.10;;;;;;5028911;28;20136;-69
2020/12/04 05:03:08;;;;;;;6.13;3.35;;;3.80;95.30;;;;;;5030868;28;20144;-69
2020/12/04 05:05:49;;;;;;;6.20;3.35;;;3.90;95.20;;;;;;5030186;28;20056;-69
2020/12/04 05:08:20;;;;;;;5.97;2.92;;;4.00;95.10;;;;;;5030999;28;20132;-69
2020/12/04 05:10:47;;;;;;;6.72;3.35;;;3.90;95.20;;;;;;5027842;28;20049;-69
2020/12/04 05:13:19;;;;;;;6.03;3.42;;;3.90;95.40;;;;;;5031016;28;20115;-69
2020/12/04 05:15:46;;;;;;;5.10;2.90;;;3.90;95.80;;;;;;5028692;28;20170;-69
2020/12/04 05:18:16;;;;;;;5.68;3.38;;;4.00;95.70;;;;;;5030335;28;20041;-69
2020/12/04 05:20:56;;;;;;;10.02;4.38;;;3.90;95.90;;;;;;5030907;28;20096;-69
2020/12/04 05:23:24;;;;;;;5.40;3.00;;;3.90;96.00;;;;;;5029792;28;20048;-69
2020/12/04 05:25:52;;;;;;;6.88;2.83;;;4.10;95.70;;;;;;5027973;28;20128;-70
2020/12/04 05:28:24;;;;;;;6.10;2.83;;;4.10;95.90;;;;;;5028199;28;20091;-69
2020/12/04 05:31:07;;;;;;;5.95;3.25;;;4.00;95.70;;;;;;5030245;28;20056;-69
2020/12/04 05:33:34;;;;;;;7.03;3.47;;;4.10;96.20;;;;;;5031138;28;20556;-69
2020/12/04 05:36:02;;;;;;;7.63;3.38;;;4.00;96.00;;;;;;5028887;28;20055;-69
2020/12/04 05:38:29;;;;;;;5.93;2.47;;;4.10;95.80;;;;;;5028925;28;20037;-70
2020/12/04 05:41:07;;;;;;;6.88;3.30;;;4.10;95.70;;;;;;5028765;28;20041;-70
2020/12/04 05:43:37;;;;;;;9.75;2.90;;;4.10;95.90;;;;;;5030037;28;20133;-69
2020/12/04 05:46:17;;;;;;;3.30;2.05;;;4.10;96.10;;;;;;5019833;28;20073;-69
2020/12/04 05:49:07;;;;;;;6.70;2.88;;;4.10;95.80;;;;;;5028173;28;20084;-70
2020/12/04 05:51:35;;;;;;;5.50;3.28;;;4.10;96.00;;;;;;5029411;28;20410;-69
2020/12/04 05:54:04;;;;;;;5.72;2.58;;;4.20;96.10;;;;;;5030697;28;20147;-70
2020/12/04 05:56:34;;;;;;;3.67;1.98;;;4.20;96.10;;;;;;5037082;28;20133;-70
2020/12/04 05:59:07;;;;;;;6.13;2.38;;;4.20;96.00;;;;;;5028172;28;20084;-70
2020/12/04 06:01:33;;;;;;;7.30;3.03;;;4.20;96.00;;;;;;5028887;28;20049;-70
2020/12/04 06:04:00;;;;;;;5.38;2.75;;;4.20;96.40;;;;;;5030277;28;20125;-70
2020/12/04 06:06:31;;;;;;;4.45;2.50;;;4.20;96.10;;;;;;5030549;28;20121;-69
2020/12/04 06:09:07;;;;;;;4.10;2.00;;;4.20;96.10;;;;;;5029341;28;20107;-69
2020/12/04 06:11:38;;;;;;;6.32;2.55;;;4.20;96.00;;;;;;5030004;28;20121;-70
2020/12/04 06:14:30;;;;;;;4.03;2.08;;;4.30;96.20;;;;;;5029888;28;20085;-70
2020/12/04 06:17:03;;;;;;;6.60;2.80;;;4.30;96.00;;;;;;5027106;28;20328;-69
2020/12/04 06:19:38;;;;;;;5.15;2.05;;;4.20;96.10;;;;;;5027372;28;20304;-70
2020/12/04 06:22:11;;;;;;;7.20;1.98;;;4.30;95.90;;;;;;5025498;28;20522;-70
2020/12/04 06:24:55;;;;;;;4.47;2.00;;;4.30;95.90;;;;;;5010324;28;20488;-70
2020/12/04 06:27:44;;;;;;;3.55;1.98;;;4.30;95.80;;;;;;5012701;28;20053;-70
2020/12/04 06:30:12;;;;;;;4.38;2.00;;;4.30;95.80;;;;;;5029851;28;20128;-70
2020/12/04 06:32:45;;;;;;;7.30;2.72;;;4.30;95.90;;;;;;5029647;28;20480;-70
2020/12/04 06:35:14;;;;;;;4.85;2.78;;;4.30;96.00;;;;;;5030201;28;20141;-69
2020/12/04 06:37:42;;;;;;;4.13;2.00;;;4.30;95.90;;;;;;5029641;28;20045;-70
2020/12/04 06:40:25;;;;;;;11.55;2.67;;;4.30;95.70;;;;;;5028042;28;20042;-69
2020/12/04 06:42:53;;;;;;;4.00;2.17;;;4.30;95.80;;;;;;5029549;28;20124;-70
2020/12/04 06:45:20;;;;;;;5.55;2.67;;;4.30;96.00;;;;;;5027078;28;20129;-69
2020/12/04 06:48:09;;;;;;;6.20;3.10;;;4.20;96.20;;;;;;5028895;28;20129;-69
2020/12/04 06:51:02;;;;;;;4.57;2.60;;;4.20;96.30;;;;;;5025272;28;20050;-69
2020/12/04 06:53:28;;;;;;;5.32;2.00;;;4.20;96.40;;;;;;5007672;28;20125;-70
2020/12/04 06:55:54;;;;;;;4.32;2.10;;;4.20;96.20;;;;;;5016733;28;20050;-70
2020/12/04 06:58:21;;;;;;;5.70;2.60;;;4.20;96.30;;;;;;5011309;28;20066;-70
2020/12/04 07:00:55;;;;;;;6.68;3.03;;;4.20;96.20;;;;;;5016975;28;20200;-69
2020/12/04 07:03:21;;;;;;;6.05;3.22;;;4.20;96.60;;;;;;5020613;28;20132;-69
2020/12/04 07:05:53;;;;;;;7.75;4.20;;;4.20;96.50;;;;;;5022943;28;20141;-70
2020/12/04 07:08:19;;;;;;;6.13;3.35;;;4.20;96.30;;;;;;5012971;28;20081;-69
2020/12/04 07:10:52;;;;;;;6.05;3.08;;;4.20;96.30;;;;;;5017159;28;20431;-69
2020/12/04 07:13:19;;;;;;;5.63;2.72;;;4.20;96.30;;;;;;5026749;28;20123;-70
2020/12/04 07:15:45;;;;;;;4.50;2.25;;;4.20;96.30;;;;;;5024351;28;20125;-70
2020/12/04 07:18:12;;;;;;;5.93;3.38;;;4.20;96.40;;;;;;5027828;28;20095;-70
2020/12/04 07:20:38;;;;;;;5.30;2.65;;;4.20;96.50;;;;;;5020089;28;20424;-69
2020/12/04 07:23:06;;;;;;;5.32;2.40;;;4.20;96.30;;;;;;5016217;28;20109;-69
2020/12/04 07:25:34;;;;;;;5.70;2.55;;;4.20;96.20;;;;;;5018220;28;20057;-70
2020/12/04 07:28:02;;;;;;;5.72;2.58;;;4.20;96.30;;;;;;5013508;28;20081;-70
2020/12/04 07:30:29;;;;;;;6.47;2.50;;;4.30;96.40;;;;;;5016151;28;20586;-69
2020/12/04 07:32:56;;;;;;;4.35;1.98;;;4.20;96.40;;;;;;5015494;28;20137;-70
2020/12/04 07:35:23;;;;;;;5.68;2.45;;;4.30;96.20;;;;;;5022365;28;20460;-69
2020/12/04 07:37:50;;;;;;;4.50;2.05;;;4.30;96.00;;;;;;5014139;28;20610;-70
2020/12/04 07:40:17;;;;;;;5.18;2.22;;;4.40;96.00;;;;;;5022730;28;20124;-69
2020/12/04 07:42:44;;;;;;;6.70;2.95;;;4.40;96.00;;;;;;5022138;28;20214;-69
2020/12/04 07:45:18;;;;;;;6.22;2.50;;;4.40;95.90;;;;;;5022604;28;20433;-70
2020/12/04 07:47:44;;;;;;;6.10;2.70;;;4.50;95.70;;;;;;5024234;28;20506;-69
2020/12/04 07:50:12;;;;;;;3.78;1.75;;;4.50;95.40;;;;;;5023848;28;20052;-69
2020/12/04 07:52:50;;;;;;;6.43;2.78;;;4.60;95.00;;;;;;5008345;28;20080;-69
2020/12/04 07:55:19;;;;;;;4.07;1.92;;;4.60;95.20;;;;;;5016606;28;20151;-69
2020/12/04 07:58:02;;;;;;;5.85;1.85;;;4.60;95.20;;;;;;5019413;28;20152;-69
2020/12/04 08:00:33;;;;;;;3.92;1.92;;;4.70;95.10;;;;;;5019142;28;20167;-70
2020/12/04 08:03:03;;;;;;;4.82;2.05;;;4.70;95.00;;;;;;5022338;28;20069;-69
2020/12/04 08:05:35;;;;;;;4.35;1.92;;;4.70;94.90;;;;;;5010452;28;20116;-70
2020/12/04 08:08:01;;;;;;;4.40;1.90;;;4.70;95.10;;;;;;5021373;28;20057;-69
2020/12/04 08:10:28;;;;;;;5.70;2.33;;;4.80;94.80;;;;;;5023557;28;20061;-69
2020/12/04 08:12:56;;;;;;;5.65;2.00;;;4.90;94.50;;;;;;5030963;28;20140;-70
2020/12/04 08:15:23;;;;;;;4.88;1.85;;;4.90;94.50;;;;;;5016205;28;20093;-70
2020/12/04 08:18:03;;;;;;;3.80;1.75;;;4.90;94.50;;;;;;5011835;28;20042;-69
2020/12/04 08:20:30;;;;;;;4.45;1.85;;;4.90;94.60;;;;;;5017457;28;20049;-69
2020/12/04 08:22:56;;;;;;;5.85;1.80;;;4.90;95.00;;;;;;5020897;28;20073;-69
2020/12/04 08:25:30;;;;;;;5.85;1.77;;;4.90;94.80;;;;;;5021096;28;20136;-69
2020/12/04 08:27:57;;;;;;;4.20;1.83;;;4.90;94.80;;;;;;5039607;28;20548;-69
2020/12/04 08:30:28;;;;;;;3.47;1.65;;;5.00;94.30;;;;;;5023722;28;20133;-70
2020/12/04 08:32:54;;;;;;;3.90;1.85;;;5.10;94.10;;;;;;5023746;28;20140;-69
2020/12/04 08:35:36;;;;;;;5.45;1.60;;;5.20;94.00;;;;;;5014795;28;20050;-69
2020/12/04 08:38:07;;;;;;;3.40;1.70;;;5.20;93.90;;;;;;5012360;28;20041;-69
2020/12/04 08:40:35;;;;;;;2.90;1.30;;;5.20;93.90;;;;;;5020453;28;20068;-69
2020/12/04 08:43:10;;;;;;;3.70;1.80;;;5.20;94.10;;;;;;5021225;28;20200;-70
2020/12/04 08:45:39;;;;;;;4.65;1.63;;;5.10;94.30;;;;;;5025326;28;20061;-70
2020/12/04 08:48:16;;;;;;;5.68;1.73;;;5.10;94.40;;;;;;5019905;28;20053;-69
2020/12/04 08:50:43;;;;;;;3.97;1.73;;;5.10;94.40;;;;;;5021688;28;20086;-70
2020/12/04 08:53:12;;;;;;;4.50;2.00;;;5.10;94.40;;;;;;5031347;28;20573;-70
2020/12/04 08:55:48;;;;;;;5.13;2.00;;;5.10;94.30;;;;;;5029503;28;20125;-69
2020/12/04 08:58:18;;;;;;;11.45;5.72;;;5.10;95.00;;;;;;5020967;28;20080;-69
2020/12/04 09:00:46;;;;;;;9.77;4.90;;;5.10;94.30;;;;;;5024717;28;20486;-69
2020/12/04 09:03:13;;;;;;;6.20;2.65;;;5.20;94.40;;;;;;5023971;28;20201;-70
2020/12/04 09:05:39;;;;;;;5.93;3.08;;;5.20;94.30;;;;;;5011874;28;20046;-69
2020/12/04 09:08:06;;;;;;;8.50;4.90;;;5.20;94.50;;;;;;5011094;28;20137;-69
2020/12/04 09:10:35;;;;;;;6.75;2.92;;;5.20;94.30;;;;;;5027047;28;20132;-69
2020/12/04 09:13:02;;;;;;;4.95;2.70;;;5.30;94.00;;;;;;5020870;28;20104;-70
2020/12/04 09:15:29;;;;;;;17.35;7.30;;;5.20;94.10;;;;;;5025001;28;20069;-69
2020/12/04 09:17:56;;;;;;;24.02;11.35;;;5.30;94.00;;;;;;5022155;28;20050;-69
2020/12/04 09:20:24;;;;;;;22.60;10.43;;;5.30;93.60;;;;;;5014980;28;20090;-69
2020/12/04 09:22:51;;;;;;;15.32;7.65;;;5.40;93.50;;;;;;5019168;28;20073;-70
2020/12/04 09:25:21;;;;;;;8.85;3.42;;;5.50;93.20;;;;;;5018360;28;20125;-69
2020/12/04 09:27:50;;;;;;;3.88;1.92;;;5.60;92.70;;;;;;5011363;28;20093;-70
2020/12/04 09:30:19;;;;;;;19.30;7.85;;;5.70;92.40;;;;;;5023366;28;20045;-69
2020/12/04 09:32:47;;;;;;;5.28;2.90;;;5.80;92.60;;;;;;5026682;28;20143;-69
2020/12/04 09:35:13;;;;;;;6.75;3.38;;;5.90;92.00;;;;;;5019597;28;20142;-70
2020/12/04 09:37:41;;;;;;;5.18;2.30;;;5.90;92.50;;;;;;5029381;28;20045;-70
2020/12/04 09:40:13;;;;;;;12.13;5.25;;;5.90;92.30;;;;;;5022712;28;20073;-70
2020/12/04 09:42:42;;;;;;;3.90;1.50;;;5.90;92.30;;;;;;5030638;28;20137;-69
2020/12/04 09:45:10;;;;;;;7.35;2.70;;;5.80;92.40;;;;;;5021401;28;20475;-70
2020/12/04 09:47:36;;;;;;;6.05;2.47;;;5.80;92.50;;;;;;5020207;28;20137;-70
2020/12/04 09:50:09;;;;;;;5.90;3.15;;;5.90;92.60;;;;;;5027154;28;20103;-70
2020/12/04 09:52:37;;;;;;;8.68;2.63;;;5.90;92.90;;;;;;5018865;28;20140;-70
2020/12/04 09:55:04;;;;;;;5.40;1.67;;;5.90;92.50;;;;;;5021858;28;20081;-69
2020/12/04 09:57:32;;;;;;;6.95;2.00;;;6.00;92.50;;;;;;5012757;28;20081;-70
2020/12/04 09:59:59;;;;;;;3.67;1.55;;;6.00;92.70;;;;;;5026128;28;20092;-69
2020/12/04 10:02:25;;;;;;;5.38;1.45;;;5.90;92.60;;;;;;5022237;28;20077;-70
2020/12/04 10:04:52;;;;;;;3.92;1.30;;;6.00;92.70;;;;;;5016695;28;20144;-69
2020/12/04 10:07:18;;;;;;;2.50;1.00;;;6.00;93.00;;;;;;5028370;28;20155;-70
2020/12/04 10:09:46;;;;;;;2.65;1.00;;;6.10;92.60;;;;;;5016285;28;20337;-70
2020/12/04 10:12:13;;;;;;;4.45;1.27;;;6.10;92.80;;;;;;5012281;28;20061;-69
2020/12/04 10:14:41;;;;;;;2.30;1.23;;;6.10;93.00;;;;;;5019002;28;20150;-70
2020/12/04 10:17:08;;;;;;;5.15;1.40;;;6.10;93.20;;;;;;5016804;28;20052;-69
2020/12/04 10:19:36;;;;;;;2.63;0.85;;;6.10;93.00;;;;;;5014145;28;20058;-70
2020/12/04 10:22:03;;;;;;;4.28;1.38;;;6.10;92.90;;;;;;5011061;28;20054;-69
2020/12/04 10:24:30;;;;;;;6.22;0.80;;;6.10;93.10;;;;;;5018244;28;20061;-70
2020/12/04 10:26:58;;;;;;;4.80;0.80;;;6.00;93.40;;;;;;5029491;28;20069;-69
2020/12/04 10:29:24;;;;;;;2.33;1.17;;;6.10;93.20;;;;;;5027421;28;20083;-69
2020/12/04 10:31:51;;;;;;;2.90;1.20;;;6.10;93.70;;;;;;5016659;28;20200;-69
2020/12/04 10:34:17;;;;;;;3.58;1.30;;;6.10;93.50;;;;;;5024649;28;20069;-70
2020/12/04 10:36:44;;;;;;;3.25;1.10;;;6.10;93.50;;;;;;5021823;28;20045;-69
2020/12/04 10:39:12;;;;;;;4.38;1.63;;;6.10;93.10;;;;;;5029007;28;20065;-69
2020/12/04 10:41:41;;;;;;;3.15;1.23;;;6.10;93.30;;;;;;5018918;28;20129;-70
2020/12/04 10:44:10;;;;;;;1.80;1.00;;;6.10;93.40;;;;;;5014965;28;20586;-69
2020/12/04 10:46:37;;;;;;;2.65;1.10;;;6.00;93.60;;;;;;5023730;28;20045;-69
2020/12/04 10:49:05;;;;;;;4.07;1.80;;;6.00;93.60;;;;;;5008122;28;20069;-69
2020/12/04 10:51:32;;;;;;;2.35;1.10;;;6.00;93.70;;;;;;5014417;28;20049;-69
2020/12/04 10:53:59;;;;;;;2.55;1.13;;;6.00;93.80;;;;;;5020976;28;20045;-70
2020/12/04 10:56:25;;;;;;;2.60;0.82;;;5.90;94.10;;;;;;5014594;28;20077;-70
2020/12/04 10:58:53;;;;;;;3.03;0.98;;;6.00;93.90;;;;;;5012361;28;20193;-69
2020/12/04 11:01:31;;;;;;;4.90;1.10;;;5.90;94.10;;;;;;5027920;28;20140;-69
2020/12/04 11:06:27;;;;;;;2.97;0.90;;;5.90;94.40;;;;;;5014201;28;20078;-69
2020/12/04 11:08:54;;;;;;;5.50;1.52;;;5.90;94.60;;;;;;5028078;28;20388;-69
2020/12/04 11:11:26;;;;;;;3.83;2.15;;;5.90;94.50;;;;;;5019873;28;20073;-69
2020/12/04 11:13:53;;;;;;;3.47;1.70;;;5.90;94.70;;;;;;5027374;28;20041;-69
2020/12/04 11:16:19;;;;;;;2.38;1.00;;;5.90;94.60;;;;;;5017068;28;20467;-69
2020/12/04 11:18:46;;;;;;;3.60;1.30;;;5.90;94.60;;;;;;5025297;28;20554;-69
2020/12/04 11:21:12;;;;;;;2.55;1.00;;;5.80;94.60;;;;;;5020396;28;20076;-69
2020/12/04 11:23:38;;;;;;;1.50;0.85;;;5.90;94.80;;;;;;5012617;28;20049;-69
2020/12/04 11:26:04;;;;;;;3.10;0.90;;;5.90;94.60;;;;;;5028170;28;20053;-68
2020/12/04 11:28:33;;;;;;;2.47;0.90;;;5.90;94.50;;;;;;5017886;28;20507;-69
2020/12/04 11:31:00;;;;;;;2.72;0.80;;;5.90;94.90;;;;;;5022471;28;20096;-69
2020/12/04 11:33:27;;;;;;;2.35;1.10;;;5.90;94.50;;;;;;5024198;28;20539;-70
2020/12/04 11:35:55;;;;;;;2.95;1.23;;;6.00;94.70;;;;;;5019563;28;20041;-70
2020/12/04 11:38:22;;;;;;;2.90;1.13;;;6.10;94.70;;;;;;5018616;28;20073;-69
2020/12/04 11:40:48;;;;;;;4.07;1.50;;;6.10;94.50;;;;;;5009288;28;20049;-68
2020/12/04 11:43:15;;;;;;;2.10;0.90;;;6.20;94.30;;;;;;5021436;28;20188;-69
2020/12/04 11:45:41;;;;;;;2.67;0.88;;;6.30;94.10;;;;;;5025390;28;20077;-69
2020/12/04 11:48:08;;;;;;;1.90;0.90;;;6.30;94.00;;;;;;5014499;28;20085;-69
2020/12/04 11:50:34;;;;;;;1.83;0.70;;;6.40;93.70;;;;;;5024142;28;20050;-69
2020/12/04 11:53:01;;;;;;;1.83;0.85;;;6.40;93.50;;;;;;5027785;28;20052;-69
2020/12/04 11:55:27;;;;;;;3.08;0.80;;;6.50;93.40;;;;;;5025528;28;20555;-69
2020/12/04 11:57:53;;;;;;;2.42;0.93;;;6.60;93.40;;;;;;5017001;28;20053;-69
2020/12/04 12:00:20;;;;;;;2.20;0.82;;;6.50;93.20;;;;;;5018364;28;20482;-70
2020/12/04 12:02:47;;;;;;;2.00;0.70;;;6.50;93.30;;;;;;5009306;28;20196;-70
2020/12/04 12:05:14;;;;;;;1.75;0.60;;;6.60;93.30;;;;;;5013739;28;20132;-70
2020/12/04 12:07:41;;;;;;;3.28;0.98;;;6.70;93.20;;;;;;5017964;28;20085;-70
2020/12/04 12:10:08;;;;;;;1.48;0.55;;;6.70;93.20;;;;;;5014231;28;20050;-69
2020/12/04 12:12:36;;;;;;;1.50;0.60;;;6.70;92.50;;;;;;5018736;28;20056;-69
2020/12/04 12:15:03;;;;;;;2.13;0.70;;;6.80;92.40;;;;;;5025580;28;20046;-69
2020/12/04 12:17:30;;;;;;;2.08;0.70;;;6.60;92.60;;;;;;5025366;28;20041;-70
2020/12/04 12:19:56;;;;;;;3.13;0.88;;;6.60;93.00;;;;;;5013102;28;20523;-70
2020/12/04 12:22:22;;;;;;;4.03;1.23;;;6.70;93.10;;;;;;5016771;28;20056;-70
2020/12/04 12:24:49;;;;;;;1.77;0.88;;;6.70;92.80;;;;;;5008271;28;20547;-70
2020/12/04 12:27:15;;;;;;;3.75;1.23;;;6.70;92.50;;;;;;5023791;28;20132;-69
2020/12/04 12:29:42;;;;;;;2.05;0.70;;;6.70;92.80;;;;;;5025074;28;20045;-70
2020/12/04 12:32:09;;;;;;;3.35;1.05;;;6.70;92.70;;;;;;5020775;28;20510;-69
2020/12/04 12:37:20;;;;;;;3.85;0.82;;;6.60;92.50;;;;;;5021717;28;20181;-69
2020/12/04 12:39:46;;;;;;;1.25;0.57;;;6.50;92.50;;;;;;5023492;28;20077;-69
2020/12/04 12:42:15;;;;;;;2.40;0.80;;;6.50;92.90;;;;;;5019229;28;20627;-69
2020/12/04 12:44:42;;;;;;;1.27;0.60;;;6.50;92.90;;;;;;5019141;28;21739;-69
2020/12/04 12:47:09;;;;;;;0.90;0.50;;;6.40;92.80;;;;;;5025365;28;20115;-70
2020/12/04 12:49:35;;;;;;;1.27;0.50;;;6.40;93.00;;;;;;5018318;28;20442;-70
2020/12/04 12:52:02;;;;;;;1.33;0.82;;;6.30;93.00;;;;;;5021018;28;20125;-70
2020/12/04 12:54:29;;;;;;;1.85;0.77;;;6.30;93.30;;;;;;5026884;28;20595;-70
2020/12/04 12:56:56;;;;;;;1.10;0.50;;;6.30;93.20;;;;;;5016700;28;20084;-69
2020/12/04 12:59:23;;;;;;;2.65;0.80;;;6.30;92.90;;;;;;5012844;28;20160;-70
2020/12/04 13:01:53;;;;;;;1.00;0.60;;;6.30;93.20;;;;;;5026055;28;20081;-69
2020/12/04 13:04:20;;;;;;;3.60;0.80;;;6.20;93.30;;;;;;5011318;28;20089;-68
2020/12/04 13:06:47;;;;;;;3.88;0.60;;;6.10;93.30;;;;;;5017919;28;20127;-69